Sao Bento Abade, Brazil
Current Conditions -  °F | °C
As of 11:00 AM on Friday 19 Dec 2014 (Local Time) from SBGW Reporting Station
Scattered Clouds Scattered Clouds  
Wind Chill: 81°   Ceiling: Unl
Heat Index: 83°   Visibility: 6mi
Dew Point: 68°   Wind: 2mph
Humidity: 65%   Direction: 60°ENE
Pressure: 29.91"   Gusts: NA
Location:  21.58°S, 45.08°W
Report Text: SBGW 191300Z 06002KT 9999 SCT025 27/20 Q1013
Loading
Personal Weather Stations






























Interactive Weather Map New forecast layout! Learn more

10-Day Weather Forecast

Advertisements
Track Severe Weather on mobile